createdAt,value
2018-03-28T00:00:57.042Z,1010.56
2018-03-28T00:01:57.041Z,1010.57
2018-03-28T00:02:57.039Z,1010.55
2018-03-28T00:03:57.074Z,1010.52
2018-03-28T00:04:57.052Z,1010.52
2018-03-28T00:05:57.046Z,1010.51
2018-03-28T00:06:57.072Z,1010.47
2018-03-28T00:07:57.060Z,1010.49
2018-03-28T00:08:57.039Z,1010.47
2018-03-28T00:09:57.044Z,1010.49
2018-03-28T00:10:57.048Z,1010.5
2018-03-28T00:11:57.048Z,1010.49
2018-03-28T00:12:57.044Z,1010.48
2018-03-28T00:13:57.072Z,1010.52
2018-03-28T00:14:57.041Z,1010.47
2018-03-28T00:15:57.043Z,1010.48
2018-03-28T00:16:57.094Z,1010.51
2018-03-28T00:17:57.077Z,1010.5
2018-03-28T00:18:57.042Z,1010.51
2018-03-28T00:19:57.053Z,1010.51
2018-03-28T00:20:57.096Z,1010.53
2018-03-28T00:21:57.054Z,1010.45
2018-03-28T00:22:57.047Z,1010.42
2018-03-28T00:23:57.046Z,1010.45
2018-03-28T00:24:57.048Z,1010.41
2018-03-28T00:25:57.052Z,1010.39
2018-03-28T00:26:57.051Z,1010.39
2018-03-28T00:27:57.068Z,1010.39
2018-03-28T00:28:57.051Z,1010.37
2018-03-28T00:29:57.059Z,1010.37
2018-03-28T00:30:57.048Z,1010.41
2018-03-28T00:31:57.053Z,1010.4
2018-03-28T00:32:57.055Z,1010.4
2018-03-28T00:33:57.047Z,1010.4
2018-03-28T00:34:57.070Z,1010.35
2018-03-28T00:35:57.056Z,1010.41
2018-03-28T00:36:57.049Z,1010.38
2018-03-28T00:37:57.065Z,1010.4
2018-03-28T00:38:57.048Z,1010.37
2018-03-28T00:39:57.048Z,1010.36
2018-03-28T00:40:57.053Z,1010.35
2018-03-28T00:41:57.094Z,1010.32
2018-03-28T00:42:57.061Z,1010.26
2018-03-28T00:43:57.064Z,1010.27
2018-03-28T00:44:57.056Z,1010.29
2018-03-28T00:45:57.053Z,1010.26
2018-03-28T00:46:57.057Z,1010.25
2018-03-28T00:47:57.171Z,1010.26
2018-03-28T00:48:57.057Z,1010.26
2018-03-28T00:49:57.055Z,1010.21
2018-03-28T00:50:57.063Z,1010.22
2018-03-28T00:51:57.066Z,1010.21
2018-03-28T00:52:57.065Z,1010.24
2018-03-28T00:53:57.106Z,1010.19
2018-03-28T00:54:57.068Z,1010.25
2018-03-28T00:55:57.060Z,1010.22
2018-03-28T00:56:57.093Z,1010.2
2018-03-28T00:57:57.073Z,1010.23
2018-03-28T00:58:57.073Z,1010.27
2018-03-28T00:59:57.069Z,1010.22
2018-03-28T01:00:57.066Z,1010.27
2018-03-28T01:01:57.093Z,1010.21
2018-03-28T01:02:57.067Z,1010.16
2018-03-28T01:03:57.059Z,1010.2
2018-03-28T01:04:57.055Z,1010.18
2018-03-28T01:05:57.088Z,1010.17
2018-03-28T01:06:57.078Z,1010.16
2018-03-28T01:07:57.098Z,1010.22
2018-03-28T01:08:57.085Z,1010.23
2018-03-28T01:09:57.073Z,1010.27
2018-03-28T01:10:57.059Z,1010.23
2018-03-28T01:11:57.112Z,1010.17
2018-03-28T01:12:57.102Z,1010.13
2018-03-28T01:13:57.070Z,1010.22
2018-03-28T01:14:57.071Z,1010.21
2018-03-28T01:15:57.078Z,1010.22
2018-03-28T01:16:57.065Z,1010.21
2018-03-28T01:17:57.132Z,1010.2
2018-03-28T01:18:57.177Z,1010.18
2018-03-28T01:19:57.079Z,1010.19
2018-03-28T01:20:57.069Z,1010.15
2018-03-28T01:21:57.069Z,1010.15
2018-03-28T01:22:57.064Z,1010.11
2018-03-28T01:23:57.072Z,1010.17
2018-03-28T01:24:57.076Z,1010.15
2018-03-28T01:25:57.075Z,1010.21
2018-03-28T01:26:57.084Z,1010.22
2018-03-28T01:27:57.074Z,1010.2
2018-03-28T01:28:57.072Z,1010.16
2018-03-28T01:29:57.079Z,1010.17
2018-03-28T01:30:57.071Z,1010.16
2018-03-28T01:31:57.072Z,1010.14
2018-03-28T01:32:57.071Z,1010.14
2018-03-28T01:33:57.074Z,1010.11
2018-03-28T01:34:57.215Z,1010.12
2018-03-28T01:35:57.076Z,1010.1
2018-03-28T01:36:57.078Z,1010.1
2018-03-28T01:37:57.086Z,1010.09
2018-03-28T01:38:57.082Z,1010.17
2018-03-28T01:39:57.568Z,1010.09
2018-03-28T01:40:57.123Z,1010.12
2018-03-28T01:41:57.069Z,1010.1
2018-03-28T01:42:57.077Z,1010.13
2018-03-28T01:43:57.079Z,1010.11
2018-03-28T01:44:57.098Z,1010.14
2018-03-28T01:45:57.072Z,1010.09
2018-03-28T01:46:57.079Z,1010.1
2018-03-28T01:47:57.086Z,1010.14
2018-03-28T01:48:57.078Z,1010.1
2018-03-28T01:49:57.187Z,1010.08
2018-03-28T01:50:57.095Z,1010.03
2018-03-28T01:51:57.074Z,1010.05
2018-03-28T01:52:57.082Z,1010.07
2018-03-28T01:53:57.082Z,1010.01
2018-03-28T01:54:57.101Z,1010
2018-03-28T01:55:57.092Z,1010.01
2018-03-28T01:56:57.078Z,1010
2018-03-28T01:57:57.087Z,1010.04
2018-03-28T01:58:57.085Z,1010.04
2018-03-28T01:59:57.351Z,1010.05
2018-03-28T02:00:57.082Z,1010
2018-03-28T02:01:57.088Z,1009.97
2018-03-28T02:02:57.088Z,1010.01
2018-03-28T02:03:57.079Z,1010.03
2018-03-28T02:04:57.178Z,1010
2018-03-28T02:05:57.087Z,1010.02
2018-03-28T02:06:57.151Z,1010
2018-03-28T02:07:57.097Z,1009.98
2018-03-28T02:08:57.086Z,1010.02
2018-03-28T02:09:57.088Z,1010.04
2018-03-28T02:10:57.140Z,1009.96
2018-03-28T02:11:57.099Z,1009.96
2018-03-28T02:12:57.085Z,1009.93
2018-03-28T02:13:57.087Z,1009.91
2018-03-28T02:14:57.093Z,1009.94
2018-03-28T02:15:57.109Z,1009.95
2018-03-28T02:16:57.098Z,1009.98
2018-03-28T02:17:57.089Z,1009.96
2018-03-28T02:18:57.129Z,1009.95
2018-03-28T02:19:57.091Z,1009.94
2018-03-28T02:20:57.140Z,1009.91
2018-03-28T02:21:57.093Z,1009.92
2018-03-28T02:22:57.092Z,1009.89
2018-03-28T02:23:57.097Z,1009.88
2018-03-28T02:24:57.094Z,1009.87
2018-03-28T02:25:57.114Z,1009.88
2018-03-28T02:26:57.096Z,1009.9
2018-03-28T02:27:57.094Z,1009.89
2018-03-28T02:28:57.103Z,1009.91
2018-03-28T02:29:57.098Z,1009.87
2018-03-28T02:30:57.131Z,1009.89
2018-03-28T02:31:57.101Z,1009.89
2018-03-28T02:32:57.131Z,1009.82
2018-03-28T02:33:57.104Z,1009.83
2018-03-28T02:34:57.098Z,1009.85
2018-03-28T02:35:57.093Z,1009.87
2018-03-28T02:36:57.099Z,1009.9
2018-03-28T02:37:57.109Z,1009.84
2018-03-28T02:38:57.111Z,1009.8
2018-03-28T02:39:57.107Z,1009.82
2018-03-28T02:40:57.101Z,1009.82
2018-03-28T02:41:57.111Z,1009.84
2018-03-28T02:42:57.120Z,1009.79
2018-03-28T02:43:57.113Z,1009.81
2018-03-28T02:44:57.118Z,1009.82
2018-03-28T02:45:57.107Z,1009.84
2018-03-28T02:46:57.116Z,1009.85
2018-03-28T02:47:57.127Z,1009.84
2018-03-28T02:48:57.105Z,1009.82
2018-03-28T02:49:57.125Z,1009.82
2018-03-28T02:50:57.107Z,1009.76
2018-03-28T02:51:57.149Z,1009.8
2018-03-28T02:52:57.105Z,1009.83
2018-03-28T02:53:57.110Z,1009.8
2018-03-28T02:54:57.116Z,1009.79
2018-03-28T02:55:57.127Z,1009.78
2018-03-28T02:56:57.103Z,1009.78
2018-03-28T02:57:57.106Z,1009.79
2018-03-28T02:58:57.113Z,1009.8
2018-03-28T02:59:57.111Z,1009.79
2018-03-28T03:00:57.131Z,1009.81
2018-03-28T03:01:57.114Z,1009.81
2018-03-28T03:02:57.113Z,1009.83
2018-03-28T03:03:57.104Z,1009.8
2018-03-28T03:04:57.110Z,1009.85
2018-03-28T03:05:57.110Z,1009.85
2018-03-28T03:06:57.220Z,1009.88
2018-03-28T03:07:57.124Z,1009.89
2018-03-28T03:08:57.163Z,1009.88
2018-03-28T03:09:57.106Z,1009.88
2018-03-28T03:10:57.124Z,1009.93
2018-03-28T03:11:57.129Z,1009.92
2018-03-28T03:12:57.112Z,1009.91
2018-03-28T03:13:57.117Z,1009.93
2018-03-28T03:14:57.114Z,1009.9
2018-03-28T03:15:57.120Z,1009.89
2018-03-28T03:16:57.116Z,1009.9
2018-03-28T03:17:57.130Z,1009.92
2018-03-28T03:18:57.113Z,1009.94
2018-03-28T03:19:57.111Z,1009.89
2018-03-28T03:20:57.115Z,1009.95
2018-03-28T03:21:57.112Z,1009.94
2018-03-28T03:22:57.175Z,1009.96
2018-03-28T03:23:57.110Z,1009.95
2018-03-28T03:24:57.110Z,1009.92
2018-03-28T03:25:57.152Z,1010.01
2018-03-28T03:26:57.130Z,1009.99
2018-03-28T03:27:57.115Z,1010.06
2018-03-28T03:28:57.109Z,1010.03
2018-03-28T03:29:57.129Z,1010.02
2018-03-28T03:30:57.114Z,1010.02
2018-03-28T03:31:57.118Z,1010.03
2018-03-28T03:32:57.124Z,1010.01
2018-03-28T03:33:57.108Z,1009.97
2018-03-28T03:34:57.113Z,1010.08
2018-03-28T03:35:57.118Z,1010.02
2018-03-28T03:36:57.304Z,1010.02
2018-03-28T03:37:57.119Z,1010.1
2018-03-28T03:38:57.111Z,1010.03
2018-03-28T03:39:57.123Z,1010.07
2018-03-28T03:40:57.124Z,1010.07
2018-03-28T03:41:57.134Z,1010
2018-03-28T03:42:57.114Z,1010.04
2018-03-28T03:43:57.113Z,1010.05
2018-03-28T03:44:57.120Z,1010
2018-03-28T03:45:57.118Z,1009.99
2018-03-28T03:46:57.123Z,1010.04
2018-03-28T03:47:57.119Z,1010
2018-03-28T03:48:57.165Z,1010.05
2018-03-28T03:49:57.124Z,1010.03
2018-03-28T03:50:57.116Z,1010.03
2018-03-28T03:51:57.114Z,1010.02
2018-03-28T03:52:57.120Z,1010.04
2018-03-28T03:53:57.217Z,1010.07
2018-03-28T03:54:57.119Z,1010.06
2018-03-28T03:55:57.140Z,1010.1
2018-03-28T03:56:57.122Z,1010.1
2018-03-28T03:57:57.121Z,1010.1
2018-03-28T03:58:57.124Z,1010.07
2018-03-28T03:59:57.117Z,1010.12
2018-03-28T04:00:57.116Z,1010.15
2018-03-28T04:01:57.121Z,1010.12
2018-03-28T04:02:57.139Z,1010.15
2018-03-28T04:03:57.185Z,1010.15
2018-03-28T04:04:57.119Z,1010.12
2018-03-28T04:05:57.125Z,1010.09
2018-03-28T04:06:57.122Z,1010.11
2018-03-28T04:07:57.121Z,1010.1
2018-03-28T04:08:57.125Z,1010.11
2018-03-28T04:09:57.143Z,1010.11
2018-03-28T04:10:57.121Z,1010.08
2018-03-28T04:11:57.127Z,1010.13
2018-03-28T04:12:57.123Z,1010.12
2018-03-28T04:13:57.147Z,1010.09
2018-03-28T04:14:57.167Z,1010.13
2018-03-28T04:15:57.128Z,1010.14
2018-03-28T04:16:57.130Z,1010.09
2018-03-28T04:17:57.133Z,1010.07
2018-03-28T04:18:57.158Z,1010.07
2018-03-28T04:19:57.123Z,1010.09
2018-03-28T04:20:57.126Z,1010.1
2018-03-28T04:21:57.129Z,1010.08
2018-03-28T04:22:57.130Z,1010.08
2018-03-28T04:23:57.127Z,1010.11
2018-03-28T04:24:57.203Z,1010.18
2018-03-28T04:25:57.130Z,1010.15
2018-03-28T04:26:57.126Z,1010.18
2018-03-28T04:27:57.132Z,1010.2
2018-03-28T04:28:57.173Z,1010.19
2018-03-28T04:29:57.127Z,1010.15
2018-03-28T04:30:57.127Z,1010.2
2018-03-28T04:31:57.134Z,1010.17
2018-03-28T04:32:57.146Z,1010.18
2018-03-28T04:33:57.143Z,1010.24
2018-03-28T04:34:57.139Z,1010.22
2018-03-28T04:35:57.140Z,1010.26
2018-03-28T04:36:57.163Z,1010.2
2018-03-28T04:37:57.134Z,1010.2
2018-03-28T04:38:57.141Z,1010.24
2018-03-28T04:39:57.191Z,1010.18
2018-03-28T04:40:57.139Z,1010.23
2018-03-28T04:41:57.155Z,1010.25
2018-03-28T04:42:57.147Z,1010.28
2018-03-28T04:43:57.147Z,1010.22
2018-03-28T04:44:57.151Z,1010.24
2018-03-28T04:45:57.165Z,1010.26
2018-03-28T04:46:57.139Z,1010.27
2018-03-28T04:47:57.167Z,1010.27
2018-03-28T04:48:57.141Z,1010.32
2018-03-28T04:49:57.142Z,1010.28
2018-03-28T04:50:57.139Z,1010.26
2018-03-28T04:51:57.144Z,1010.32
2018-03-28T04:52:57.146Z,1010.37
2018-03-28T04:53:57.142Z,1010.33
2018-03-28T04:54:57.146Z,1010.32
2018-03-28T04:55:57.261Z,1010.34
2018-03-28T04:56:57.139Z,1010.38
2018-03-28T04:57:57.155Z,1010.33
2018-03-28T04:58:57.152Z,1010.3
2018-03-28T04:59:57.143Z,1010.35
2018-03-28T05:00:57.175Z,1010.32
2018-03-28T05:01:57.161Z,1010.35
2018-03-28T05:02:57.153Z,1010.34
2018-03-28T05:03:57.161Z,1010.27
2018-03-28T05:04:57.161Z,1010.32
2018-03-28T05:05:57.151Z,1010.27
2018-03-28T05:06:57.152Z,1010.31
2018-03-28T05:07:57.144Z,1010.36
2018-03-28T05:08:57.178Z,1010.33
2018-03-28T05:09:57.152Z,1010.29
2018-03-28T05:10:57.149Z,1010.27
2018-03-28T05:11:57.150Z,1010.3
2018-03-28T05:12:57.152Z,1010.25
2018-03-28T05:13:57.152Z,1010.2
2018-03-28T05:14:57.187Z,1010.15
2018-03-28T05:15:57.156Z,1010.11
2018-03-28T05:16:57.150Z,1010.06
2018-03-28T05:17:57.158Z,1010.11
2018-03-28T05:18:57.152Z,1010.16
2018-03-28T05:19:57.150Z,1010.12
2018-03-28T05:20:57.153Z,1010.18
2018-03-28T05:21:57.150Z,1010.15
2018-03-28T05:22:57.159Z,1010.17
2018-03-28T05:23:57.154Z,1010.17
2018-03-28T05:24:57.158Z,1010.16
2018-03-28T05:25:57.179Z,1010.15
2018-03-28T05:26:57.237Z,1010.17
2018-03-28T05:27:57.162Z,1010.16
2018-03-28T05:28:57.179Z,1010.14
2018-03-28T05:29:57.158Z,1010.1
2018-03-28T05:30:57.175Z,1010.09
2018-03-28T05:31:57.166Z,1010.1
2018-03-28T05:32:57.173Z,1010.09
2018-03-28T05:33:57.156Z,1010.11
2018-03-28T05:34:57.165Z,1010.1
2018-03-28T05:35:57.181Z,1010.09
2018-03-28T05:36:57.163Z,1010.09
2018-03-28T05:37:57.158Z,1010.07
2018-03-28T05:38:57.163Z,1010.11
2018-03-28T05:39:57.176Z,1010.1
2018-03-28T05:40:57.160Z,1010.12
2018-03-28T05:41:57.158Z,1010.17
2018-03-28T05:42:57.161Z,1010.15
2018-03-28T05:43:57.225Z,1010.18
2018-03-28T05:44:57.175Z,1010.25
2018-03-28T05:45:57.191Z,1010.25
2018-03-28T05:46:57.189Z,1010.29
2018-03-28T05:47:57.166Z,1010.29
2018-03-28T05:48:57.163Z,1010.32
2018-03-28T05:49:57.172Z,1010.38
2018-03-28T05:50:57.198Z,1010.38
2018-03-28T05:51:57.168Z,1010.42
2018-03-28T05:52:57.164Z,1010.39
2018-03-28T05:53:57.164Z,1010.41
2018-03-28T05:54:57.201Z,1010.41
2018-03-28T05:55:57.194Z,1010.44
2018-03-28T05:56:57.176Z,1010.42
2018-03-28T05:57:57.245Z,1010.47
2018-03-28T05:58:57.171Z,1010.44
2018-03-28T05:59:57.189Z,1010.47
2018-03-28T06:00:57.178Z,1010.45
2018-03-28T06:01:57.262Z,1010.48
2018-03-28T06:02:57.172Z,1010.43
2018-03-28T06:03:57.176Z,1010.48
2018-03-28T06:04:57.172Z,1010.47
2018-03-28T06:05:57.172Z,1010.43
2018-03-28T06:06:57.199Z,1010.47
2018-03-28T06:07:57.194Z,1010.48
2018-03-28T06:08:57.172Z,1010.45
2018-03-28T06:09:57.178Z,1010.43
2018-03-28T06:10:57.212Z,1010.42
2018-03-28T06:11:57.165Z,1010.43
2018-03-28T06:12:57.266Z,1010.47
2018-03-28T06:13:57.172Z,1010.44
2018-03-28T06:14:57.187Z,1010.44
2018-03-28T06:15:57.182Z,1010.43
2018-03-28T06:16:57.193Z,1010.46
2018-03-28T06:17:57.174Z,1010.44
2018-03-28T06:18:57.561Z,1010.41
2018-03-28T06:19:57.205Z,1010.41
2018-03-28T06:20:57.170Z,1010.39
2018-03-28T06:21:57.315Z,1010.4
2018-03-28T06:22:57.178Z,1010.42
2018-03-28T06:23:57.181Z,1010.41
2018-03-28T06:24:57.198Z,1010.45
2018-03-28T06:25:57.172Z,1010.4
2018-03-28T06:26:57.182Z,1010.51
2018-03-28T06:27:57.179Z,1010.49
2018-03-28T06:28:57.257Z,1010.51
2018-03-28T06:29:57.178Z,1010.5
2018-03-28T06:30:57.183Z,1010.47
2018-03-28T06:31:57.175Z,1010.44
2018-03-28T06:32:57.189Z,1010.42
2018-03-28T06:33:57.183Z,1010.41
2018-03-28T06:34:57.192Z,1010.42
2018-03-28T06:35:57.186Z,1010.42
2018-03-28T06:36:57.181Z,1010.42
2018-03-28T06:37:57.312Z,1010.48
2018-03-28T06:38:57.206Z,1010.43
2018-03-28T06:39:57.197Z,1010.46
2018-03-28T06:40:57.194Z,1010.49
2018-03-28T06:41:57.186Z,1010.54
2018-03-28T06:42:57.186Z,1010.51
2018-03-28T06:43:57.181Z,1010.5
2018-03-28T06:44:57.179Z,1010.49
2018-03-28T06:45:57.186Z,1010.49
2018-03-28T06:46:57.198Z,1010.46
2018-03-28T06:47:57.197Z,1010.46
2018-03-28T06:48:57.183Z,1010.5
2018-03-28T06:49:57.191Z,1010.5
2018-03-28T06:50:57.184Z,1010.5
2018-03-28T06:51:57.178Z,1010.49
2018-03-28T06:52:57.207Z,1010.52
2018-03-28T06:53:57.206Z,1010.44
2018-03-28T06:54:57.190Z,1010.48
2018-03-28T06:55:57.496Z,1010.53
2018-03-28T06:56:57.197Z,1010.5
2018-03-28T06:57:57.188Z,1010.5
2018-03-28T06:58:57.185Z,1010.55
2018-03-28T06:59:57.273Z,1010.51
2018-03-28T07:00:57.186Z,1010.52
2018-03-28T07:01:57.280Z,1010.47
2018-03-28T07:02:57.188Z,1010.47
2018-03-28T07:03:57.193Z,1010.42
2018-03-28T07:04:57.196Z,1010.43
2018-03-28T07:05:57.189Z,1010.42
2018-03-28T07:06:57.236Z,1010.41
2018-03-28T07:07:57.188Z,1010.45
2018-03-28T07:08:57.454Z,1010.39
2018-03-28T07:09:57.186Z,1010.34
2018-03-28T07:10:57.226Z,1010.4
2018-03-28T07:11:57.186Z,1010.42
2018-03-28T07:12:57.203Z,1010.39
2018-03-28T07:13:57.207Z,1010.48
2018-03-28T07:14:57.198Z,1010.45
2018-03-28T07:15:57.197Z,1010.44
2018-03-28T07:16:57.211Z,1010.48
2018-03-28T07:17:57.186Z,1010.45
2018-03-28T07:18:57.212Z,1010.5
2018-03-28T07:19:57.200Z,1010.38
2018-03-28T07:20:57.188Z,1010.48
2018-03-28T07:21:57.191Z,1010.45
2018-03-28T07:22:57.198Z,1010.44
2018-03-28T07:23:57.216Z,1010.49
2018-03-28T07:24:57.235Z,1010.4
2018-03-28T07:25:57.204Z,1010.4
2018-03-28T07:26:57.197Z,1010.46
2018-03-28T07:27:57.195Z,1010.42
2018-03-28T07:28:57.203Z,1010.45
2018-03-28T07:29:57.223Z,1010.44
2018-03-28T07:30:57.256Z,1010.48
2018-03-28T07:31:57.199Z,1010.45
2018-03-28T07:32:57.198Z,1010.51
2018-03-28T07:33:57.202Z,1010.5
2018-03-28T07:34:57.216Z,1010.53
2018-03-28T07:35:57.194Z,1010.56
2018-03-28T07:36:57.205Z,1010.55
2018-03-28T07:37:57.201Z,1010.55
2018-03-28T07:38:57.206Z,1010.49
2018-03-28T07:39:57.210Z,1010.53
2018-03-28T07:40:57.197Z,1010.48
2018-03-28T07:41:57.212Z,1010.5
2018-03-28T07:42:57.217Z,1010.51
2018-03-28T07:43:57.201Z,1010.47
2018-03-28T07:44:57.227Z,1010.46
2018-03-28T07:45:57.197Z,1010.46
2018-03-28T07:46:57.202Z,1010.47
2018-03-28T07:47:57.276Z,1010.43
2018-03-28T07:48:57.224Z,1010.47
2018-03-28T07:49:57.224Z,1010.43
2018-03-28T07:50:57.210Z,1010.44
2018-03-28T07:51:57.197Z,1010.38
2018-03-28T07:52:57.211Z,1010.43
2018-03-28T07:53:57.206Z,1010.48
2018-03-28T07:54:57.224Z,1010.5
2018-03-28T07:55:57.215Z,1010.48
2018-03-28T07:56:57.209Z,1010.44
2018-03-28T07:57:57.266Z,1010.44
2018-03-28T07:58:57.225Z,1010.43
2018-03-28T07:59:57.218Z,1010.42
2018-03-28T08:00:57.215Z,1010.41
2018-03-28T08:01:57.303Z,1010.38
2018-03-28T08:02:57.219Z,1010.45
2018-03-28T08:03:57.291Z,1010.37
2018-03-28T08:04:57.215Z,1010.41
2018-03-28T08:05:57.220Z,1010.46
2018-03-28T08:06:57.208Z,1010.39
2018-03-28T08:07:57.204Z,1010.39
2018-03-28T08:08:57.215Z,1010.41
2018-03-28T08:09:57.240Z,1010.4
2018-03-28T08:10:57.212Z,1010.4
2018-03-28T08:11:57.214Z,1010.39
2018-03-28T08:12:57.220Z,1010.34
2018-03-28T08:13:57.240Z,1010.29
2018-03-28T08:14:57.216Z,1010.27
2018-03-28T08:15:57.236Z,1010.32
2018-03-28T08:16:57.210Z,1010.25
2018-03-28T08:17:57.209Z,1010.24
2018-03-28T08:18:57.216Z,1010.27
2018-03-28T08:19:57.224Z,1010.22
2018-03-28T08:20:57.219Z,1010.16
2018-03-28T08:21:57.215Z,1010.22
2018-03-28T08:22:57.244Z,1010.18
2018-03-28T08:23:57.210Z,1010.11
2018-03-28T08:24:57.228Z,1010.04
2018-03-28T08:25:57.214Z,1010.04
2018-03-28T08:26:57.207Z,1010.01
2018-03-28T08:27:57.228Z,1010.06
2018-03-28T08:28:57.220Z,1010.08
2018-03-28T08:29:57.252Z,1010.04
2018-03-28T08:30:57.228Z,1010.04
2018-03-28T08:31:57.215Z,1010.12
2018-03-28T08:32:57.273Z,1010.04
2018-03-28T08:33:57.220Z,1010.03
2018-03-28T08:34:57.243Z,1010.12
2018-03-28T08:35:57.217Z,1010.04
2018-03-28T08:36:57.224Z,1010.04
2018-03-28T08:37:57.230Z,1009.99
2018-03-28T08:38:57.220Z,1010.02
2018-03-28T08:39:57.219Z,1009.98
2018-03-28T08:40:57.217Z,1009.95
2018-03-28T08:41:57.222Z,1009.98
2018-03-28T08:42:57.218Z,1009.95
2018-03-28T08:43:57.238Z,1009.97
2018-03-28T08:44:57.224Z,1009.98
2018-03-28T08:45:57.225Z,1010.01
2018-03-28T08:46:57.232Z,1009.98
2018-03-28T08:47:57.227Z,1009.96
2018-03-28T08:48:57.225Z,1009.96
2018-03-28T08:49:57.291Z,1010
2018-03-28T08:50:57.252Z,1010.01
2018-03-28T08:51:57.232Z,1010.01
2018-03-28T08:52:57.228Z,1009.96
2018-03-28T08:53:57.240Z,1010.01
2018-03-28T08:54:57.221Z,1010.01
2018-03-28T08:55:57.228Z,1009.97
2018-03-28T08:56:57.225Z,1009.97
2018-03-28T08:57:57.234Z,1009.96
2018-03-28T08:58:57.226Z,1009.89
2018-03-28T08:59:57.223Z,1009.96
2018-03-28T09:00:57.859Z,1009.99
2018-03-28T09:01:57.681Z,1009.96
2018-03-28T09:02:57.231Z,1009.93
2018-03-28T09:03:57.296Z,1009.89
2018-03-28T09:04:57.232Z,1009.97
2018-03-28T09:05:57.238Z,1009.92
2018-03-28T09:06:57.318Z,1009.91
2018-03-28T09:07:57.251Z,1009.92
2018-03-28T09:08:57.229Z,1009.89
2018-03-28T09:09:57.287Z,1009.93
2018-03-28T09:10:57.232Z,1009.87
2018-03-28T09:11:57.233Z,1009.94
2018-03-28T09:12:57.226Z,1009.89
2018-03-28T09:13:57.225Z,1009.91
2018-03-28T09:14:57.233Z,1009.91
2018-03-28T09:15:57.240Z,1009.92
2018-03-28T09:16:57.271Z,1009.94
2018-03-28T09:17:57.235Z,1009.9
2018-03-28T09:18:57.233Z,1009.88
2018-03-28T09:19:57.334Z,1009.94
2018-03-28T09:20:57.240Z,1009.85
2018-03-28T09:21:57.281Z,1009.82
2018-03-28T09:22:58.279Z,1009.85
2018-03-28T09:23:57.229Z,1009.84
2018-03-28T09:24:57.237Z,1009.8
2018-03-28T09:25:57.230Z,1009.82
2018-03-28T09:26:57.251Z,1009.84
2018-03-28T09:27:57.226Z,1009.8
2018-03-28T09:28:57.243Z,1009.8
2018-03-28T09:29:57.241Z,1009.77
2018-03-28T09:30:57.234Z,1009.67
2018-03-28T09:31:57.269Z,1009.73
2018-03-28T09:32:57.301Z,1009.71
2018-03-28T09:33:57.241Z,1009.73
2018-03-28T09:34:58.616Z,1009.72
2018-03-28T09:35:57.259Z,1009.66
2018-03-28T09:36:58.943Z,1009.7
2018-03-28T09:37:58.266Z,1009.72
2018-03-28T09:38:57.410Z,1009.63
2018-03-28T09:39:57.239Z,1009.66
2018-03-28T09:40:57.235Z,1009.61
2018-03-28T09:41:57.276Z,1009.7
2018-03-28T09:42:57.235Z,1009.61
2018-03-28T09:43:57.245Z,1009.56
2018-03-28T09:44:57.243Z,1009.58
2018-03-28T09:45:57.250Z,1009.58
2018-03-28T09:46:57.548Z,1009.62
2018-03-28T09:47:57.242Z,1009.59
2018-03-28T09:48:57.250Z,1009.54
2018-03-28T09:49:57.245Z,1009.54
2018-03-28T09:50:57.253Z,1009.53
2018-03-28T09:51:57.285Z,1009.5
2018-03-28T09:52:57.237Z,1009.51
2018-03-28T09:53:57.253Z,1009.45
2018-03-28T09:54:57.255Z,1009.46
2018-03-28T09:55:57.246Z,1009.47
2018-03-28T09:56:57.524Z,1009.48
2018-03-28T09:57:57.256Z,1009.42
2018-03-28T09:58:57.238Z,1009.45
2018-03-28T09:59:57.271Z,1009.44
2018-03-28T10:00:57.279Z,1009.38
2018-03-28T10:01:57.273Z,1009.34
2018-03-28T10:02:57.240Z,1009.33
2018-03-28T10:03:57.252Z,1009.28
2018-03-28T10:04:57.261Z,1009.29
2018-03-28T10:05:57.342Z,1009.23
2018-03-28T10:06:57.315Z,1009.25
2018-03-28T10:07:57.248Z,1009.23
2018-03-28T10:08:57.250Z,1009.25
2018-03-28T10:09:57.255Z,1009.19
2018-03-28T10:10:57.246Z,1009.18
2018-03-28T10:11:57.246Z,1009.21
2018-03-28T10:12:57.245Z,1009.21
2018-03-28T10:13:57.269Z,1009.15
2018-03-28T10:14:57.244Z,1009.07
2018-03-28T10:15:57.247Z,1009.11
2018-03-28T10:16:57.258Z,1009.05
2018-03-28T10:17:57.528Z,1009.05
2018-03-28T10:18:57.250Z,1009
2018-03-28T10:19:57.254Z,1008.99
2018-03-28T10:20:57.260Z,1009.03
2018-03-28T10:21:57.267Z,1009.03
2018-03-28T10:22:57.285Z,1008.96
2018-03-28T10:23:57.261Z,1008.9
2018-03-28T10:24:57.256Z,1008.95
2018-03-28T10:25:57.261Z,1008.91
2018-03-28T10:26:57.274Z,1008.92
2018-03-28T10:27:57.275Z,1008.91
2018-03-28T10:28:57.267Z,1008.86
2018-03-28T10:29:57.269Z,1008.92
2018-03-28T10:30:57.267Z,1008.81
2018-03-28T10:31:57.265Z,1008.86
2018-03-28T10:32:57.267Z,1008.83
2018-03-28T10:33:57.290Z,1008.92
2018-03-28T10:34:57.273Z,1008.86
2018-03-28T10:35:57.342Z,1008.81
2018-03-28T10:36:57.346Z,1008.8
2018-03-28T10:37:57.271Z,1008.78
2018-03-28T10:38:57.289Z,1008.77
2018-03-28T10:39:57.274Z,1008.78
2018-03-28T10:40:57.271Z,1008.75
2018-03-28T10:41:57.305Z,1008.76
2018-03-28T10:42:57.288Z,1008.79
2018-03-28T10:43:57.278Z,1008.74
2018-03-28T10:44:57.271Z,1008.69
2018-03-28T10:45:57.270Z,1008.69
2018-03-28T10:46:57.280Z,1008.7
2018-03-28T10:47:57.282Z,1008.62
2018-03-28T10:48:57.266Z,1008.65
2018-03-28T10:49:57.280Z,1008.66
2018-03-28T10:50:57.270Z,1008.53
2018-03-28T10:51:57.271Z,1008.52
2018-03-28T10:52:57.282Z,1008.52
2018-03-28T10:53:57.296Z,1008.48
2018-03-28T10:54:57.274Z,1008.47
2018-03-28T10:55:57.290Z,1008.48
2018-03-28T10:56:57.290Z,1008.53
2018-03-28T10:57:57.275Z,1008.48
2018-03-28T10:58:57.308Z,1008.45
2018-03-28T10:59:57.289Z,1008.41
2018-03-28T11:00:57.287Z,1008.42
2018-03-28T11:01:57.288Z,1008.45
2018-03-28T11:02:57.290Z,1008.45
2018-03-28T11:03:57.287Z,1008.41
2018-03-28T11:04:57.294Z,1008.36
2018-03-28T11:05:57.318Z,1008.33
2018-03-28T11:06:57.292Z,1008.35
2018-03-28T11:07:57.376Z,1008.31
2018-03-28T11:08:57.290Z,1008.33
2018-03-28T11:09:57.278Z,1008.28
2018-03-28T11:10:57.288Z,1008.31
2018-03-28T11:11:57.311Z,1008.22
2018-03-28T11:12:57.366Z,1008.17
2018-03-28T11:13:57.304Z,1008.15
2018-03-28T11:14:57.302Z,1008.08
2018-03-28T11:15:57.290Z,1008.09
2018-03-28T11:16:59.006Z,1008.16
2018-03-28T11:17:57.289Z,1008.17
2018-03-28T11:18:57.296Z,1008.04
2018-03-28T11:19:57.347Z,1008.11
2018-03-28T11:20:57.426Z,1008.06
2018-03-28T11:21:57.357Z,1008.02
2018-03-28T11:22:57.299Z,1007.95
2018-03-28T11:23:59.599Z,1007.96
2018-03-28T11:24:57.369Z,1007.91
2018-03-28T11:25:57.381Z,1007.91
2018-03-28T11:26:57.312Z,1007.91
2018-03-28T11:27:57.315Z,1007.8
2018-03-28T11:28:57.306Z,1007.86
2018-03-28T11:29:57.320Z,1007.84
2018-03-28T11:30:57.310Z,1007.79
2018-03-28T11:31:57.329Z,1007.73
2018-03-28T11:32:57.298Z,1007.7
2018-03-28T11:33:57.300Z,1007.68
2018-03-28T11:34:57.320Z,1007.72
2018-03-28T11:35:57.292Z,1007.7
2018-03-28T11:36:57.298Z,1007.62
2018-03-28T11:37:57.381Z,1007.62
2018-03-28T11:38:57.366Z,1007.6
2018-03-28T11:39:57.328Z,1007.65
2018-03-28T11:40:57.299Z,1007.57
2018-03-28T11:41:57.369Z,1007.51
2018-03-28T11:42:57.304Z,1007.55
2018-03-28T11:43:57.306Z,1007.49
2018-03-28T11:44:57.444Z,1007.53
2018-03-28T11:45:57.310Z,1007.57
2018-03-28T11:46:57.306Z,1007.49
2018-03-28T11:47:57.308Z,1007.52
2018-03-28T11:48:57.302Z,1007.48
2018-03-28T11:49:57.326Z,1007.46
2018-03-28T11:50:57.309Z,1007.49
2018-03-28T11:51:57.303Z,1007.5
2018-03-28T11:52:57.599Z,1007.48
2018-03-28T11:53:57.303Z,1007.44
2018-03-28T11:54:57.355Z,1007.45
2018-03-28T11:55:57.305Z,1007.46
2018-03-28T11:56:57.321Z,1007.48
2018-03-28T11:57:57.320Z,1007.47
2018-03-28T11:58:57.353Z,1007.55
2018-03-28T11:59:57.335Z,1007.45
2018-03-28T12:00:57.315Z,1007.49
2018-03-28T12:01:57.335Z,1007.43
2018-03-28T12:02:57.312Z,1007.37
2018-03-28T12:03:57.317Z,1007.36
2018-03-28T12:04:57.324Z,1007.38
2018-03-28T12:05:57.314Z,1007.31
2018-03-28T12:06:57.321Z,1007.34
2018-03-28T12:07:57.315Z,1007.34
2018-03-28T12:08:57.371Z,1007.27